Home > Products > Valid Products > TAF

000
FTUS43 KGLD 310533
TAFMCK
TAF
KMCK 310533Z 3106/0106 16008KT P6SM SKC
     FM311000 15004KT 6SM BR SKC
     FM311400 16011KT P6SM FEW250
     FM312200 12010KT P6SM SCT200=



000
FTUS43 KGLD 310533
TAFGLD
TAF
KGLD 310533Z 3106/0106 18011KT P6SM SKC
     FM311300 VRB06KT P6SM SKC
     FM311700 13010KT P6SM SCT250
     FM312300 11008KT P6SM BKN080=



000
FTUS43 KGLD 310533
TAFMCK
TAF
KMCK 310533Z 3106/0106 16008KT P6SM SKC
     FM311000 15004KT 6SM BR SKC
     FM311400 16011KT P6SM FEW250
     FM312200 12010KT P6SM SCT200=



000
FTUS43 KGLD 310218 AAD
TAFMCK
TAF AMD
KMCK 310218Z 3102/3124 16009KT 6SM FU SKC
     FM310300 15008KT P6SM SKC
     FM311800 17013KT P6SM FEW250=



000
FTUS43 KGLD 310218 AAD
TAFMCK
TAF AMD
KMCK 310218Z 3102/3124 16009KT 6SM FU SKC
     FM310300 15008KT P6SM SKC
     FM311800 17013KT P6SM FEW250=



000
FTUS43 KGLD 310121 AAD
TAFGLD
TAF AMD
KGLD 310121Z 3101/3124 17012KT 6SM FU SKC
     FM310300 18012KT P6SM SKC
     FM311500 04008KT P6SM SKC
     FM311900 13011KT P6SM SCT250=



000
FTUS43 KGLD 302337 AAC
TAFGLD
TAF AMD
KGLD 302337Z 3100/3124 17016KT 5SM FU SKC
     FM310300 18012KT P6SM SKC
     FM311500 04008KT P6SM SKC
     FM311900 13011KT P6SM SCT250=



000
FTUS43 KGLD 302337 AAC
TAFMCK
TAF AMD
KMCK 302337Z 3100/3124 18015KT 5SM FU SKC
     FM310300 15008KT P6SM SKC
     FM311800 17013KT P6SM FEW250=



000
FTUS43 KGLD 302337 AAC
TAFGLD
TAF AMD
KGLD 302337Z 3100/3124 17016KT 5SM FU SKC
     FM310300 18012KT P6SM SKC
     FM311500 04008KT P6SM SKC
     FM311900 13011KT P6SM SCT250=



000
FTUS43 KGLD 302337 AAC
TAFMCK
TAF AMD
KMCK 302337Z 3100/3124 18015KT 5SM FU SKC
     FM310300 15008KT P6SM SKC
     FM311800 17013KT P6SM FEW250=



000
FTUS43 KGLD 302337 AAC
TAFMCK
TAF AMD
KMCK 302337Z 3100/3124 18015KT 5SM FU SKC
     FM310300 15008KT P6SM SKC
     FM311800 17013KT P6SM FEW250=



000
FTUS43 KGLD 302310 AAB
TAFMCK
TAF AMD
KMCK 302310Z 3023/3118 17015G23KT 5SM FU FEW050
     FM310200 16009KT P6SM SKC
     FM310900 15006KT 6SM BR SCT010
     FM311500 17007KT P6SM FEW120=



000
FTUS43 KGLD 302310 AAB
TAFMCK
TAF AMD
KMCK 302310Z 3023/3118 17015G23KT 5SM FU FEW050
     FM310200 16009KT P6SM SKC
     FM310900 15006KT 6SM BR SCT010
     FM311500 17007KT P6SM FEW120=



000
FTUS43 KGLD 301839 AAA
TAFMCK
TAF AMD
KMCK 301839Z 3019/3118 17015G23KT 6SM FU FEW050
     FM310200 16009KT P6SM SKC
     FM310900 15006KT 6SM BR SCT010
     FM311500 17007KT P6SM FEW120=



000
FTUS43 KGLD 301839 AAA
TAFMCK
TAF AMD
KMCK 301839Z 3019/3118 17015G23KT 6SM FU FEW050
     FM310200 16009KT P6SM SKC
     FM310900 15006KT 6SM BR SCT010
     FM311500 17007KT P6SM FEW120=



000
FTUS43 KGLD 301839 AAA
TAFGLD
TAF AMD
KGLD 301839Z 3019/3118 18019G27KT 4SM FU FEW040
     FM310300 17012KT P6SM FEW250
     FM311100 18008KT P6SM FEW250
     FM311400 25006KT P6SM FEW120
     FM311700 05008KT P6SM FEW120=



000
FTUS43 KGLD 301839 AAA
TAFGLD
TAF AMD
KGLD 301839Z 3019/3118 18019G27KT 4SM FU FEW040
     FM310300 17012KT P6SM FEW250
     FM311100 18008KT P6SM FEW250
     FM311400 25006KT P6SM FEW120
     FM311700 05008KT P6SM FEW120=



000
FTUS43 KGLD 301839 AAA
TAFMCK
TAF AMD
KMCK 301839Z 3019/3118 17015G23KT 6SM FU FEW050
     FM310200 16009KT P6SM SKC
     FM310900 15006KT 6SM BR SCT010
     FM311500 17007KT P6SM FEW120=



000
FTUS43 KGLD 301839 AAA
TAFMCK
TAF AMD
KMCK 301839Z 3019/3118 17015G23KT 6SM FU FEW050
     FM310200 16009KT P6SM SKC
     FM310900 15006KT 6SM BR SCT010
     FM311500 17007KT P6SM FEW120=



000
FTUS43 KGLD 301740
TAFMCK
TAF
KMCK 301740Z 3018/3118 17015G23KT P6SM FEW250
     FM310200 16009KT P6SM SKC
     FM310900 15006KT 6SM BR SCT010
     FM311500 17007KT P6SM FEW120=



000
FTUS43 KGLD 301740
TAFGLD
TAF
KGLD 301740Z 3018/3118 18019G27KT P6SM FEW250
     FM310300 17012KT P6SM FEW250
     FM311100 18008KT P6SM FEW250
     FM311400 25006KT P6SM FEW120
     FM311700 05008KT P6SM FEW120=



000
FTUS43 KGLD 301740
TAFMCK
TAF
KMCK 301740Z 3018/3118 17015G23KT P6SM FEW250
     FM310200 16009KT P6SM SKC
     FM310900 15006KT 6SM BR SCT010
     FM311500 17007KT P6SM FEW120=



000
FTUS43 KGLD 301740
TAFGLD
TAF
KGLD 301740Z 3018/3118 18019G27KT P6SM FEW250
     FM310300 17012KT P6SM FEW250
     FM311100 18008KT P6SM FEW250
     FM311400 25006KT P6SM FEW120
     FM311700 05008KT P6SM FEW120=



000
FTUS43 KGLD 301740
TAFMCK
TAF
KMCK 301740Z 3018/3118 17015G23KT P6SM FEW250
     FM310200 16009KT P6SM SKC
     FM310900 15006KT 6SM BR SCT010
     FM311500 17007KT P6SM FEW120=



000
FTUS43 KGLD 301740
TAFMCK
TAF
KMCK 301740Z 3018/3118 17015G23KT P6SM FEW250
     FM310200 16009KT P6SM SKC
     FM310900 15006KT 6SM BR SCT010
     FM311500 17007KT P6SM FEW120=



000
FTUS43 KGLD 301144
TAFMCK
TAF
KMCK 301144Z 3012/3112 VRB05KT P6SM SKC
     FM301800 17012G22KT P6SM SKC
     FM310200 15009KT P6SM SKC=



000
FTUS43 KGLD 301144
TAFGLD
TAF
KGLD 301144Z 3012/3112 20010KT P6SM FEW060
     FM301600 18014G24KT P6SM FEW060
     FM310100 16011KT P6SM FEW100=



000
FTUS43 KGLD 301144
TAFMCK
TAF
KMCK 301144Z 3012/3112 VRB05KT P6SM SKC
     FM301800 17012G22KT P6SM SKC
     FM310200 15009KT P6SM SKC=



000
FTUS43 KGLD 301144
TAFMCK
TAF
KMCK 301144Z 3012/3112 VRB05KT P6SM SKC
     FM301800 17012G22KT P6SM SKC
     FM310200 15009KT P6SM SKC=



000
FTUS43 KGLD 300534
TAFMCK
TAF
KMCK 300534Z 3006/3106 18008KT P6SM SKC
     FM301700 17012G20KT P6SM SKC
     FM310000 16008KT P6SM SKC=



000
FTUS43 KGLD 300534
TAFGLD
TAF
KGLD 300534Z 3006/3106 20011KT P6SM SKC
     FM301500 19016G24KT P6SM SKC
     FM310000 16012KT P6SM SKC=



000
FTUS43 KGLD 300534
TAFMCK
TAF
KMCK 300534Z 3006/3106 18008KT P6SM SKC
     FM301700 17012G20KT P6SM SKC
     FM310000 16008KT P6SM SKC=



000
FTUS43 KGLD 292327
TAFGLD
TAF
KGLD 292327Z 3000/3024 18008KT P6SM FEW250
     FM301500 18015G23KT P6SM SKC=



000
FTUS43 KGLD 292327
TAFMCK
TAF
KMCK 292327Z 3000/3024 13006KT P6SM SCT250
     FM300700 VRB05KT P6SM SKC
     FM301700 18011G19KT P6SM SKC=



000
FTUS43 KGLD 292327
TAFGLD
TAF
KGLD 292327Z 3000/3024 18008KT P6SM FEW250
     FM301500 18015G23KT P6SM SKC=



000
FTUS43 KGLD 292327
TAFMCK
TAF
KMCK 292327Z 3000/3024 13006KT P6SM SCT250
     FM300700 VRB05KT P6SM SKC
     FM301700 18011G19KT P6SM SKC=



000
FTUS43 KGLD 292327
TAFMCK
TAF
KMCK 292327Z 3000/3024 13006KT P6SM SCT250
     FM300700 VRB05KT P6SM SKC
     FM301700 18011G19KT P6SM SKC=



000
FTUS43 KGLD 291721
TAFMCK
TAF
KMCK 291721Z 2918/3018 VRB04KT P6SM SKC
     FM292200 14007KT P6SM SKC
     FM300600 19006KT P6SM SKC
     FM301600 18012KT P6SM SKC=



000
FTUS43 KGLD 291721
TAFGLD
TAF
KGLD 291721Z 2918/3018 VRB05KT P6SM SKC
     FM292100 16008KT P6SM SKC
     FM300700 19008KT P6SM SKC
     FM301500 19014G22KT P6SM SKC=



000
FTUS43 KGLD 291132
TAFMCK
TAF
KMCK 291132Z 2912/3012 VRB05KT P6SM SKC
      TEMPO 2912/2914 6SM BR SKC
     FM292100 16008KT P6SM SKC=



000
FTUS43 KGLD 291132
TAFMCK
TAF
KMCK 291132Z 2912/3012 VRB05KT P6SM SKC
      TEMPO 2912/2914 6SM BR SKC
     FM292100 16008KT P6SM SKC=



000
FTUS43 KGLD 291132
TAFGLD
TAF
KGLD 291132Z 2912/3012 25006KT P6SM SKC
     FM292000 16008KT P6SM SKC=



000
FTUS43 KGLD 291132
TAFGLD
TAF
KGLD 291132Z 2912/3012 25006KT P6SM SKC
     FM292000 16008KT P6SM SKC=



000
FTUS43 KGLD 291132
TAFMCK
TAF
KMCK 291132Z 2912/3012 VRB05KT P6SM SKC
      TEMPO 2912/2914 6SM BR SKC
     FM292100 16008KT P6SM SKC=



000
FTUS43 KGLD 291132
TAFMCK
TAF
KMCK 291132Z 2912/3012 VRB05KT P6SM SKC
      TEMPO 2912/2914 6SM BR SKC
     FM292100 16008KT P6SM SKC=



000
FTUS43 KGLD 290956 AAA
TAFMCK
TAF AMD
KMCK 290956Z 2910/3006 VRB05KT P6SM SKC
      TEMPO 2911/2913 5SM BR SKC
     FM292000 16007KT P6SM SKC=



000
FTUS43 KGLD 290956 AAA
TAFMCK
TAF AMD
KMCK 290956Z 2910/3006 VRB05KT P6SM SKC
      TEMPO 2911/2913 5SM BR SKC
     FM292000 16007KT P6SM SKC=



000
FTUS43 KGLD 290953 AAA
TAFGLD
TAF AMD
KGLD 290953Z 2910/3006 25006KT P6SM SKC
     FM291900 16008KT P6SM SKC=



000
FTUS43 KGLD 290520
TAFMCK
TAF
KMCK 290520Z 2906/3006 VRB03KT 6SM BR SKC
      TEMPO 2908/2912 4SM BR SCT010
     FM291900 16005KT P6SM SCT080=



000
FTUS43 KGLD 290520
TAFGLD
TAF
KGLD 290520Z 2906/3006 VRB05KT P6SM SKC
      TEMPO 2908/2912 5SM BR SCT010
     FM291800 20006KT P6SM SCT080=



000
FTUS43 KGLD 290520
TAFMCK
TAF
KMCK 290520Z 2906/3006 VRB03KT 6SM BR SKC
      TEMPO 2908/2912 4SM BR SCT010
     FM291900 16005KT P6SM SCT080=



000
FTUS43 KGLD 290520
TAFMCK
TAF
KMCK 290520Z 2906/3006 VRB03KT 6SM BR SKC
      TEMPO 2908/2912 4SM BR SCT010
     FM291900 16005KT P6SM SCT080=



000
FTUS43 KGLD 290520
TAFMCK
TAF
KMCK 290520Z 2906/3006 VRB03KT 6SM BR SKC
      TEMPO 2908/2912 4SM BR SCT010
     FM291900 16005KT P6SM SCT080=



000
FTUS43 KGLD 290520
TAFGLD
TAF
KGLD 290520Z 2906/3006 VRB05KT P6SM SKC
      TEMPO 2908/2912 5SM BR SCT010
     FM291800 20006KT P6SM SCT080=



000
FTUS43 KGLD 282320
TAFMCK
TAF
KMCK 282320Z 2900/2924 01010G16KT 6SM FU SCT250
     FM290300 02010KT 6SM FU SKC
     FM290700 VRB03KT P6SM SKC
     FM291900 11005KT P6SM FEW060=



000
FTUS43 KGLD 282320
TAFMCK
TAF
KMCK 282320Z 2900/2924 01010G16KT 6SM FU SCT250
     FM290300 02010KT 6SM FU SKC
     FM290700 VRB03KT P6SM SKC
     FM291900 11005KT P6SM FEW060=



000
FTUS43 KGLD 282320
TAFMCK
TAF
KMCK 282320Z 2900/2924 01010G16KT 6SM FU SCT250
     FM290300 02010KT 6SM FU SKC
     FM290700 VRB03KT P6SM SKC
     FM291900 11005KT P6SM FEW060=



000
FTUS43 KGLD 282320
TAFGLD
TAF
KGLD 282320Z 2900/2924 01012G20KT 6SM FU SCT250
     FM290300 03006KT 6SM FU SKC
     FM290800 VRB03KT P6SM SKC
     FM291900 20006KT P6SM SCT060=



000
FTUS43 KGLD 282320
TAFMCK
TAF
KMCK 282320Z 2900/2924 01010G16KT 6SM FU SCT250
     FM290300 02010KT 6SM FU SKC
     FM290700 VRB03KT P6SM SKC
     FM291900 11005KT P6SM FEW060=



000
FTUS43 KGLD 282320
TAFGLD
TAF
KGLD 282320Z 2900/2924 01012G20KT 6SM FU SCT250
     FM290300 03006KT 6SM FU SKC
     FM290800 VRB03KT P6SM SKC
     FM291900 20006KT P6SM SCT060=



000
FTUS43 KGLD 281721
TAFMCK
TAF
KMCK 281721Z 2818/2918 34015G20KT P6SM SKC
     FM282300 01012G17KT P6SM SKC
     FM290100 02010KT P6SM SKC
     FM290600 VRB03KT P6SM SKC=



000
FTUS43 KGLD 281721
TAFGLD
TAF
KGLD 281721Z 2818/2918 33011G18KT P6SM SKC
     FM282300 01013G20KT P6SM SKC
     FM290100 03010KT P6SM SKC
     FM290200 VRB03KT P6SM SKC=



000
FTUS43 KGLD 281721
TAFMCK
TAF
KMCK 281721Z 2818/2918 34015G20KT P6SM SKC
     FM282300 01012G17KT P6SM SKC
     FM290100 02010KT P6SM SKC
     FM290600 VRB03KT P6SM SKC=



000
FTUS43 KGLD 281721
TAFMCK
TAF
KMCK 281721Z 2818/2918 34015G20KT P6SM SKC
     FM282300 01012G17KT P6SM SKC
     FM290100 02010KT P6SM SKC
     FM290600 VRB03KT P6SM SKC=



000
FTUS43 KGLD 281721
TAFGLD
TAF
KGLD 281721Z 2818/2918 33011G18KT P6SM SKC
     FM282300 01013G20KT P6SM SKC
     FM290100 03010KT P6SM SKC
     FM290200 VRB03KT P6SM SKC=



000
FTUS43 KGLD 281721
TAFMCK
TAF
KMCK 281721Z 2818/2918 34015G20KT P6SM SKC
     FM282300 01012G17KT P6SM SKC
     FM290100 02010KT P6SM SKC
     FM290600 VRB03KT P6SM SKC=



000
FTUS43 KGLD 281120
TAFGLD
TAF
KGLD 281120Z 2812/2912 30007KT P6SM SKC
     FM281500 33012KT P6SM FEW100
     FM281700 34014G21KT P6SM FEW150
     FM282300 01011KT P6SM SKC
     FM290300 VRB04KT P6SM SKC=



000
FTUS43 KGLD 281120
TAFMCK
TAF
KMCK 281120Z 2812/2912 30010KT P6SM FEW006
     FM281700 34012G18KT P6SM SCT050
     FM282300 02011KT P6SM SKC
     FM290300 VRB04KT P6SM SKC=



000
FTUS43 KGLD 281120
TAFMCK
TAF
KMCK 281120Z 2812/2912 30010KT P6SM FEW006
     FM281700 34012G18KT P6SM SCT050
     FM282300 02011KT P6SM SKC
     FM290300 VRB04KT P6SM SKC=



000
FTUS43 KGLD 281120
TAFMCK
TAF
KMCK 281120Z 2812/2912 30010KT P6SM FEW006
     FM281700 34012G18KT P6SM SCT050
     FM282300 02011KT P6SM SKC
     FM290300 VRB04KT P6SM SKC=



000
FTUS43 KGLD 281120
TAFGLD
TAF
KGLD 281120Z 2812/2912 30007KT P6SM SKC
     FM281500 33012KT P6SM FEW100
     FM281700 34014G21KT P6SM FEW150
     FM282300 01011KT P6SM SKC
     FM290300 VRB04KT P6SM SKC=



000
FTUS43 KGLD 281120
TAFMCK
TAF
KMCK 281120Z 2812/2912 30010KT P6SM FEW006
     FM281700 34012G18KT P6SM SCT050
     FM282300 02011KT P6SM SKC
     FM290300 VRB04KT P6SM SKC=



    US Dept of Commerce
    National Oceanic and Atmospheric Administration
    National Weather Service
    1325 East West Highway
    Silver Spring, MD 20910
    Page Author: NWS Internet Services Team
Disclaimer
Information Quality
Credits
Glossary
Privacy Policy
Freedom of Information Act (FOIA)
About Us
Career Opportunities